createdAt,value
2019-05-29T00:01:12.138Z,99.90
2019-05-29T00:03:36.474Z,99.90
2019-05-29T00:06:06.212Z,99.90
2019-05-29T00:11:03.350Z,99.90
2019-05-29T00:13:32.092Z,99.90
2019-05-29T00:16:00.995Z,99.90
2019-05-29T00:18:29.758Z,99.90
2019-05-29T00:20:58.485Z,99.90
2019-05-29T00:23:27.330Z,99.90
2019-05-29T00:25:56.028Z,99.90
2019-05-29T00:28:24.719Z,99.90
2019-05-29T00:33:21.729Z,99.90
2019-05-29T00:35:50.463Z,99.90
2019-05-29T00:38:19.170Z,99.90
2019-05-29T00:40:47.866Z,99.90
2019-05-29T00:43:17.540Z,99.90
2019-05-29T00:45:46.469Z,99.90
2019-05-29T00:48:16.069Z,99.90
2019-05-29T00:55:41.593Z,99.90
2019-05-29T00:58:10.723Z,99.90
2019-05-29T01:00:39.656Z,99.90
2019-05-29T01:03:09.495Z,99.90
2019-05-29T01:05:38.501Z,99.90
2019-05-29T01:08:07.245Z,99.90
2019-05-29T01:10:35.933Z,99.90
2019-05-29T01:15:33.028Z,99.90
2019-05-29T01:18:01.735Z,99.90
2019-05-29T01:20:30.596Z,99.90
2019-05-29T01:22:59.338Z,99.90
2019-05-29T01:25:28.081Z,99.90
2019-05-29T01:27:56.863Z,99.90
2019-05-29T01:30:25.567Z,99.90
2019-05-29T01:32:54.279Z,99.90
2019-05-29T01:37:51.390Z,99.90
2019-05-29T01:40:25.120Z,99.90
2019-05-29T01:42:50.699Z,99.90
2019-05-29T01:45:19.508Z,99.90
2019-05-29T01:47:48.268Z,99.90
2019-05-29T01:50:17.732Z,99.90
2019-05-29T01:52:46.694Z,99.90
2019-05-29T01:55:15.756Z,99.90
2019-05-29T02:00:13.279Z,99.90
2019-05-29T02:02:41.979Z,99.90
2019-05-29T02:05:10.802Z,99.90
2019-05-29T02:07:39.504Z,99.90
2019-05-29T02:10:08.425Z,99.90
2019-05-29T02:12:37.423Z,99.90
2019-05-29T02:15:21.115Z,99.90
2019-05-29T02:17:37.648Z,99.90
2019-05-29T02:22:34.933Z,99.90
2019-05-29T02:25:03.957Z,99.90
2019-05-29T02:27:32.690Z,99.90
2019-05-29T02:30:01.402Z,99.90
2019-05-29T02:32:30.108Z,99.90
2019-05-29T02:34:58.922Z,99.90
2019-05-29T02:37:28.877Z,99.90
2019-05-29T02:39:57.802Z,99.90
2019-05-29T02:44:55.886Z,99.90
2019-05-29T02:47:26.067Z,99.90
2019-05-29T02:49:55.042Z,99.90
2019-05-29T02:52:24.280Z,99.90
2019-05-29T02:54:53.262Z,99.90
2019-05-29T02:57:22.827Z,99.90
2019-05-29T02:59:51.755Z,99.90
2019-05-29T03:02:21.522Z,99.90
2019-05-29T03:07:18.587Z,99.90
2019-05-29T03:09:47.285Z,99.90
2019-05-29T03:12:15.994Z,99.90
2019-05-29T03:14:44.695Z,99.90
2019-05-29T03:17:13.392Z,99.90
2019-05-29T03:19:42.101Z,99.90
2019-05-29T03:22:10.817Z,99.90
2019-05-29T03:29:38.509Z,99.90
2019-05-29T03:32:13.732Z,99.90
2019-05-29T03:34:45.752Z,99.90
2019-05-29T03:37:08.279Z,99.90
2019-05-29T03:39:38.458Z,99.90
2019-05-29T03:42:07.356Z,99.90
2019-05-29T03:44:36.041Z,99.90
2019-05-29T03:49:33.281Z,99.90
2019-05-29T03:52:02.476Z,99.90
2019-05-29T03:54:33.060Z,99.90
2019-05-29T03:57:01.695Z,99.90
2019-05-29T03:59:30.719Z,99.90
2019-05-29T04:01:59.508Z,99.90
2019-05-29T04:04:29.039Z,99.90
2019-05-29T04:06:57.798Z,99.90
2019-05-29T04:11:55.937Z,99.90
2019-05-29T04:14:24.654Z,99.90
2019-05-29T04:16:59.855Z,99.90
2019-05-29T04:19:23.944Z,99.90
2019-05-29T04:21:52.910Z,99.90
2019-05-29T04:24:21.603Z,99.90
2019-05-29T04:26:50.307Z,99.90
2019-05-29T04:29:19.043Z,99.90
2019-05-29T04:34:16.144Z,99.90
2019-05-29T04:36:44.907Z,99.90
2019-05-29T04:39:13.614Z,99.90
2019-05-29T04:41:42.390Z,99.90
2019-05-29T04:44:11.087Z,99.90
2019-05-29T04:46:40.700Z,99.90
2019-05-29T04:49:09.571Z,99.90
2019-05-29T04:54:08.459Z,99.90
2019-05-29T04:56:37.142Z,99.90
2019-05-29T04:59:05.990Z,99.90
2019-05-29T05:01:35.064Z,99.90
2019-05-29T05:04:03.882Z,99.90
2019-05-29T05:06:33.197Z,99.90
2019-05-29T05:09:01.958Z,99.90
2019-05-29T05:11:31.319Z,99.90
2019-05-29T05:16:30.165Z,99.90
2019-05-29T05:18:58.942Z,99.90
2019-05-29T05:21:27.634Z,99.90
2019-05-29T05:23:56.341Z,99.90
2019-05-29T05:26:25.024Z,99.90
2019-05-29T05:28:53.762Z,99.90
2019-05-29T05:31:22.547Z,99.90
2019-05-29T05:33:51.247Z,99.90
2019-05-29T05:38:48.261Z,99.90
2019-05-29T05:41:17.029Z,99.90
2019-05-29T05:43:45.810Z,99.90
2019-05-29T05:46:14.590Z,99.90
2019-05-29T05:48:43.346Z,99.90
2019-05-29T05:51:12.076Z,99.90
2019-05-29T05:53:41.756Z,99.90
2019-05-29T05:56:10.651Z,99.90
2019-05-29T06:01:09.046Z,99.90
2019-05-29T06:03:37.985Z,99.90
2019-05-29T06:06:06.845Z,99.90
2019-05-29T06:08:36.166Z,99.90
2019-05-29T06:11:04.924Z,99.90
2019-05-29T06:13:34.147Z,99.90
2019-05-29T06:16:02.965Z,99.90
2019-05-29T06:23:29.612Z,99.90
2019-05-29T06:26:00.190Z,99.90
2019-05-29T06:28:28.879Z,99.90
2019-05-29T06:30:57.600Z,99.90
2019-05-29T06:33:26.470Z,99.90
2019-05-29T06:35:55.271Z,99.90
2019-05-29T06:38:23.979Z,99.90
2019-05-29T06:43:22.881Z,99.90
2019-05-29T06:45:51.671Z,99.90
2019-05-29T06:48:40.608Z,99.90
2019-05-29T06:50:57.316Z,99.90
2019-05-29T06:53:25.430Z,99.90
2019-05-29T06:55:55.593Z,99.90
2019-05-29T06:58:24.552Z,99.90
2019-05-29T07:00:53.268Z,99.90
2019-05-29T07:05:52.482Z,99.90
2019-05-29T07:08:37.364Z,99.90
2019-05-29T07:10:51.465Z,99.90
2019-05-29T07:13:20.427Z,99.90
2019-05-29T07:15:49.123Z,99.90
2019-05-29T07:18:17.824Z,99.90
2019-05-29T07:20:46.965Z,99.90
2019-05-29T07:23:15.711Z,99.90
2019-05-29T07:28:14.535Z,99.90
2019-05-29T07:30:49.646Z,99.90
2019-05-29T07:33:13.862Z,99.90
2019-05-29T07:35:43.525Z,99.90
2019-05-29T07:38:12.338Z,99.90
2019-05-29T07:40:42.667Z,99.90
2019-05-29T07:43:11.586Z,99.90
2019-05-29T07:45:40.631Z,99.90
2019-05-29T07:50:38.062Z,99.90
2019-05-29T07:53:06.788Z,99.90
2019-05-29T07:55:35.490Z,99.90
2019-05-29T07:58:04.176Z,99.90
2019-05-29T08:00:35.681Z,99.90
2019-05-29T08:03:03.339Z,99.90
2019-05-29T08:05:32.047Z,99.90
2019-05-29T08:08:00.746Z,99.90
2019-05-29T08:12:57.764Z,99.90
2019-05-29T08:15:26.499Z,99.90
2019-05-29T08:17:55.199Z,99.90
2019-05-29T08:20:24.161Z,99.90
2019-05-29T08:22:52.934Z,99.90
2019-05-29T08:25:21.613Z,99.90
2019-05-29T08:27:50.812Z,99.90
2019-05-29T08:30:19.737Z,99.90
2019-05-29T08:35:18.038Z,99.90
2019-05-29T08:37:47.049Z,99.90
2019-05-29T08:40:15.841Z,99.90
2019-05-29T08:42:45.207Z,99.90
2019-05-29T08:45:16.953Z,99.90
2019-05-29T08:47:45.677Z,99.90
2019-05-29T08:50:18.746Z,99.90
2019-05-29T08:52:45.998Z,99.90
2019-05-29T08:57:44.237Z,99.90
2019-05-29T09:00:13.291Z,99.90
2019-05-29T09:02:42.646Z,99.90
2019-05-29T09:05:11.635Z,99.90
2019-05-29T09:07:40.348Z,99.90
2019-05-29T09:10:09.207Z,99.90
2019-05-29T09:12:38.003Z,99.90
2019-05-29T09:15:07.050Z,99.90
2019-05-29T09:22:33.899Z,99.90
2019-05-29T09:25:02.597Z,99.90
2019-05-29T09:27:31.319Z,98.80
2019-05-29T09:30:00.035Z,99.90
2019-05-29T09:32:48.759Z,98.30
2019-05-29T09:35:01.188Z,98.50
2019-05-29T09:37:29.894Z,97.30
2019-05-29T09:42:26.953Z,97.10
2019-05-29T09:44:55.677Z,97.30
2019-05-29T09:47:24.366Z,98.20
2019-05-29T09:49:53.058Z,96.40
2019-05-29T09:52:21.759Z,96.90
2019-05-29T09:54:50.484Z,97.20
2019-05-29T09:57:19.171Z,96.90
2019-05-29T10:02:16.554Z,95.60
2019-05-29T10:04:45.671Z,95.40
2019-05-29T10:07:14.478Z,95.90
2019-05-29T10:09:43.178Z,95.90
2019-05-29T10:12:11.880Z,95.50
2019-05-29T10:14:40.582Z,95.60
2019-05-29T10:17:12.598Z,93.60
2019-05-29T10:19:39.827Z,93.90
2019-05-29T10:24:37.375Z,92.90
2019-05-29T10:27:06.775Z,92.80
2019-05-29T10:29:35.623Z,93.10
2019-05-29T10:32:04.323Z,93.50
2019-05-29T10:34:33.035Z,91.80
2019-05-29T10:37:01.726Z,93.00
2019-05-29T10:39:30.425Z,93.50
2019-05-29T10:44:27.476Z,91.20
2019-05-29T10:46:56.644Z,91.70
2019-05-29T10:49:25.598Z,92.00
2019-05-29T10:52:11.841Z,92.00
2019-05-29T10:54:24.753Z,91.50
2019-05-29T10:56:54.826Z,90.20
2019-05-29T10:59:23.871Z,90.40
2019-05-29T11:01:53.782Z,91.50
2019-05-29T11:06:52.550Z,91.60
2019-05-29T11:09:21.813Z,90.30
2019-05-29T11:11:53.086Z,88.10
2019-05-29T11:14:21.829Z,88.10
2019-05-29T11:16:50.937Z,85.70
2019-05-29T11:19:19.727Z,89.70
2019-05-29T11:21:49.716Z,90.60
2019-05-29T11:24:18.629Z,91.80
2019-05-29T11:29:17.121Z,91.60
2019-05-29T11:31:45.818Z,92.30
2019-05-29T11:34:14.539Z,93.00
2019-05-29T11:36:43.243Z,93.00
2019-05-29T11:39:12.282Z,93.10
2019-05-29T11:41:41.120Z,94.50
2019-05-29T11:44:09.833Z,94.90
2019-05-29T11:46:38.654Z,96.30
2019-05-29T11:51:36.843Z,97.40
2019-05-29T11:54:05.591Z,98.20
2019-05-29T11:56:34.550Z,97.00
2019-05-29T11:59:03.278Z,97.50
2019-05-29T12:01:49.084Z,96.80
2019-05-29T12:04:23.256Z,97.70
2019-05-29T12:06:32.863Z,97.90
2019-05-29T12:09:01.919Z,97.30
2019-05-29T12:14:00.520Z,98.30
2019-05-29T12:16:29.792Z,99.90
2019-05-29T12:18:59.813Z,98.60
2019-05-29T12:21:28.673Z,99.20
2019-05-29T12:23:58.184Z,99.10
2019-05-29T12:26:26.960Z,98.80
2019-05-29T12:29:02.034Z,97.90
2019-05-29T12:31:26.112Z,99.90
2019-05-29T12:36:23.869Z,99.90
2019-05-29T12:38:53.483Z,99.90
2019-05-29T12:41:22.490Z,99.90
2019-05-29T12:43:51.195Z,99.90
2019-05-29T12:46:19.958Z,99.90
2019-05-29T12:48:48.657Z,99.90
2019-05-29T12:51:17.337Z,99.90
2019-05-29T12:56:14.501Z,99.90
2019-05-29T12:58:43.214Z,99.90
2019-05-29T13:01:11.892Z,99.90
2019-05-29T13:03:40.596Z,99.90
2019-05-29T13:06:09.291Z,99.90
2019-05-29T13:08:37.993Z,99.90
2019-05-29T13:11:06.762Z,99.90
2019-05-29T13:13:35.461Z,99.90
2019-05-29T13:18:34.047Z,99.90
2019-05-29T13:21:03.150Z,99.90
2019-05-29T13:23:44.236Z,99.90
2019-05-29T13:26:03.606Z,99.90
2019-05-29T13:28:32.530Z,99.90
2019-05-29T13:31:01.901Z,99.90
2019-05-29T13:33:30.694Z,99.90
2019-05-29T13:36:00.215Z,99.90
2019-05-29T13:40:58.402Z,99.90
2019-05-29T13:43:27.215Z,99.90
2019-05-29T13:45:56.325Z,99.90
2019-05-29T13:48:25.191Z,99.90
2019-05-29T13:50:53.961Z,99.90
2019-05-29T13:53:22.700Z,99.90
2019-05-29T13:55:51.475Z,99.90
2019-05-29T13:58:20.242Z,99.90
2019-05-29T14:03:17.282Z,99.90
2019-05-29T14:05:46.113Z,99.90
2019-05-29T14:08:14.793Z,99.90
2019-05-29T14:10:43.522Z,99.90
2019-05-29T14:13:12.222Z,99.90
2019-05-29T14:15:40.923Z,99.90
2019-05-29T14:18:09.663Z,99.90
2019-05-29T14:23:07.483Z,99.90
2019-05-29T14:25:36.303Z,99.90
2019-05-29T14:28:05.157Z,99.90
2019-05-29T14:30:33.925Z,99.90
2019-05-29T14:33:04.250Z,99.90
2019-05-29T14:35:33.320Z,99.90
2019-05-29T14:38:03.661Z,99.90
2019-05-29T14:40:32.514Z,99.90
2019-05-29T14:45:30.602Z,99.90
2019-05-29T14:47:59.391Z,99.90
2019-05-29T14:50:28.099Z,99.90
2019-05-29T14:52:56.806Z,99.90
2019-05-29T14:55:25.542Z,99.90
2019-05-29T14:57:54.253Z,99.90
2019-05-29T15:00:25.698Z,99.90
2019-05-29T15:02:53.362Z,99.90
2019-05-29T15:07:50.372Z,99.90
2019-05-29T15:10:26.856Z,99.90
2019-05-29T15:12:49.531Z,99.90
2019-05-29T15:15:18.299Z,99.90
2019-05-29T15:17:46.977Z,99.90
2019-05-29T15:20:16.842Z,99.90
2019-05-29T15:22:45.831Z,99.90
2019-05-29T15:25:23.546Z,99.90
2019-05-29T15:30:22.746Z,99.90
2019-05-29T15:32:47.883Z,99.90
2019-05-29T15:35:19.789Z,99.90
2019-05-29T15:37:47.419Z,99.90
2019-05-29T15:40:17.129Z,99.90
2019-05-29T15:42:46.013Z,99.90
2019-05-29T15:45:15.952Z,99.90
2019-05-29T15:47:44.909Z,99.90
2019-05-29T15:52:43.404Z,99.90
2019-05-29T15:55:27.090Z,99.90
2019-05-29T15:57:42.684Z,99.90
2019-05-29T16:00:11.579Z,99.90
2019-05-29T16:02:40.360Z,99.90
2019-05-29T16:05:10.884Z,99.90
2019-05-29T16:07:39.618Z,99.90
2019-05-29T16:10:12.369Z,99.90
2019-05-29T16:15:11.043Z,99.90
2019-05-29T16:17:40.049Z,99.90
2019-05-29T16:20:10.087Z,99.90
2019-05-29T16:22:39.205Z,99.90
2019-05-29T16:25:08.063Z,99.90
2019-05-29T16:27:36.764Z,99.90
2019-05-29T16:30:05.469Z,99.90
2019-05-29T16:32:34.191Z,99.90
2019-05-29T16:37:31.262Z,99.90
2019-05-29T16:40:00.338Z,99.90
2019-05-29T16:42:29.053Z,99.90
2019-05-29T16:44:57.783Z,99.90
2019-05-29T16:47:26.520Z,99.90
2019-05-29T16:49:55.330Z,99.90
2019-05-29T16:52:24.027Z,99.90
2019-05-29T16:54:52.769Z,99.90
2019-05-29T16:59:50.064Z,99.90
2019-05-29T17:02:19.665Z,99.90
2019-05-29T17:04:49.159Z,99.90
2019-05-29T17:07:18.134Z,99.90
2019-05-29T17:09:49.663Z,99.90
2019-05-29T17:12:22.563Z,99.90
2019-05-29T17:14:58.693Z,99.90
2019-05-29T17:17:37.275Z,99.90
2019-05-29T17:20:09.171Z,99.90
2019-05-29T17:25:28.481Z,99.90
2019-05-29T17:28:04.673Z,99.90
2019-05-29T17:30:45.739Z,99.90
2019-05-29T17:33:40.754Z,99.90
2019-05-29T17:36:29.256Z,99.90
2019-05-29T17:39:25.360Z,99.90
2019-05-29T17:41:54.788Z,99.90
2019-05-29T17:44:32.299Z,99.90
2019-05-29T17:47:13.580Z,99.90
2019-05-29T17:49:52.658Z,99.90
2019-05-29T17:52:33.008Z,99.90
2019-05-29T17:55:04.572Z,99.90
2019-05-29T17:58:34.433Z,99.90
2019-05-29T18:01:11.846Z,99.90
2019-05-29T18:04:12.977Z,99.90
2019-05-29T18:09:40.855Z,99.90
2019-05-29T18:15:10.473Z,99.90
2019-05-29T18:17:44.365Z,99.90
2019-05-29T18:21:05.191Z,99.90
2019-05-29T18:23:55.480Z,99.90
2019-05-29T18:26:52.895Z,99.90
2019-05-29T18:29:22.322Z,99.90
2019-05-29T18:31:57.200Z,99.90
2019-05-29T18:34:30.766Z,99.90
2019-05-29T18:37:00.569Z,99.90
2019-05-29T18:44:33.160Z,99.90
2019-05-29T18:47:02.723Z,99.90
2019-05-29T18:49:32.656Z,99.90
2019-05-29T18:52:04.810Z,99.90
2019-05-29T18:54:40.875Z,99.90
2019-05-29T18:57:15.698Z,99.90
2019-05-29T18:59:42.070Z,99.90
2019-05-29T19:04:40.351Z,99.90
2019-05-29T19:07:09.066Z,99.90
2019-05-29T19:09:40.833Z,99.90
2019-05-29T19:12:10.498Z,99.90
2019-05-29T19:14:43.566Z,99.90
2019-05-29T19:17:18.208Z,99.90
2019-05-29T19:19:49.984Z,99.90
2019-05-29T19:22:19.464Z,99.90
2019-05-29T19:24:51.697Z,99.90
2019-05-29T19:29:54.855Z,99.90
2019-05-29T19:32:27.269Z,99.90
2019-05-29T19:37:32.099Z,99.90
2019-05-29T19:40:06.465Z,99.90
2019-05-29T19:42:41.509Z,99.90
2019-05-29T19:45:26.459Z,99.90
2019-05-29T19:48:40.159Z,99.90
2019-05-29T19:51:29.101Z,99.90
2019-05-29T19:54:09.161Z,99.90
2019-05-29T19:56:43.791Z,99.90
2019-05-29T19:59:52.250Z,99.90
2019-05-29T20:02:21.407Z,99.90
2019-05-29T20:04:57.915Z,99.90
2019-05-29T20:07:46.701Z,99.90
2019-05-29T20:10:16.470Z,99.90
2019-05-29T20:15:54.518Z,99.90
2019-05-29T20:19:28.246Z,99.90
2019-05-29T20:27:42.443Z,99.90
2019-05-29T20:31:12.527Z,99.90
2019-05-29T20:45:55.451Z,99.90
2019-05-29T20:51:38.255Z,99.90
2019-05-29T20:54:27.152Z,99.90
2019-05-29T20:57:03.847Z,99.90
2019-05-29T20:59:58.472Z,99.90
2019-05-29T21:02:27.748Z,99.90
2019-05-29T21:07:46.235Z,99.90
2019-05-29T21:10:35.101Z,99.90
2019-05-29T21:13:08.954Z,99.90
2019-05-29T21:22:34.499Z,99.90
2019-05-29T21:28:50.412Z,99.90
2019-05-29T21:31:35.388Z,99.90
2019-05-29T21:34:59.670Z,99.90
2019-05-29T21:40:26.454Z,99.90
2019-05-29T21:50:07.252Z,99.90
2019-05-29T21:52:31.865Z,99.90
2019-05-29T21:55:08.277Z,99.90
2019-05-29T21:57:43.890Z,99.90
2019-05-29T22:00:20.401Z,99.90
2019-05-29T22:03:12.420Z,99.90
2019-05-29T22:05:44.620Z,99.90
2019-05-29T22:13:48.796Z,99.90
2019-05-29T22:17:01.259Z,99.90
2019-05-29T22:19:20.075Z,99.90
2019-05-29T22:31:02.072Z,99.90
2019-05-29T22:36:35.506Z,99.90
2019-05-29T22:39:42.587Z,99.90
2019-05-29T22:46:04.342Z,99.90
2019-05-29T22:49:21.922Z,99.90
2019-05-29T22:54:46.147Z,99.90
2019-05-29T23:18:41.362Z,99.90
2019-05-29T23:22:01.327Z,99.90
2019-05-29T23:32:14.593Z,99.90
2019-05-29T23:50:02.769Z,99.90
